La Joya, New Mexico
Current Conditions -  °F | °C
As of 6:35 PM on Tuesday 21 Oct 2014 (Local Time) from KE80 Reporting Station
Clear Clear  
Wind Chill: 60°   Ceiling: Unl
Heat Index: 60°   Visibility: 10mi
Dew Point: 46°   Wind: 6mph
Humidity: 60%   Direction: 150°SSE
Pressure: 30.05"   Gusts: NA
Location:  34.35°N, 106.84°W
Report Text: KE80 220035Z AUTO 15005KT 10SM CLR 16/08 A3005 RMK AO2 T01580080
Loading
Personal Weather Stations






























Interactive Weather Map
Tropical Storm Tracking
New forecast layout! Learn more

10-Day Weather Forecast

Advertisements
Track Severe Weather on mobile